
<gpx xmlns="http://www.topografix.com/GPX/1/1" xmlns:gpxx="http://www.garmin.com/xmlschemas/GpxExtensions/v3" xmlns:xsi="http://www.w3.org/2001/XMLSchema-instance" version="1.1" creator="Adze - https://getadze.com/" xsi:schemaLocation="http://www.topografix.com/GPX/1/1 http://www.topografix.com/GPX/1/1/gpx.xsd http://www.garmin.com/xmlschemas/GpxExtensions/v3 http://www.garmin.com/xmlschemas/GpxExtensionsv3.xsd">
    <metadata>
        <name>Untitled Document</name>
        <link href="http://www.garmin.com"></link>
        <time>2018-03-08T03:57:06.524Z</time>
    </metadata>
    <wpt lon="99.229870" lat="13.555539">
        <ele>345.000000</ele>
        <name>Au Long Resort</name>
        <cmt>24-APR-09 15:10:53</cmt>
        <desc>24-APR-09 15:10:53</desc>
        <sym>City Hall</sym>
        <extensions>
            <gpxx:WaypointExtension xmlns:gpxx="http://www.garmin.com/xmlschemas/GpxExtensions/v3">
                <gpxx:DisplayMode>SymbolAndName</gpxx:DisplayMode>
            </gpxx:WaypointExtension>
        </extensions>
    </wpt>
    <wpt lon="99.253597" lat="13.570156">
        <time>2009-04-27T01:58:30Z</time>
        <name>April 2009 - Sunday water</name>
        <cmt>RATCHABURI 4019 RURAL RD.</cmt>
        <desc>RATCHABURI 4019 RURAL RD.</desc>
        <sym>Drinking Water</sym>
        <extensions>
            <gpxx:WaypointExtension xmlns:gpxx="http://www.garmin.com/xmlschemas/GpxExtensions/v3">
                <gpxx:DisplayMode>SymbolOnly</gpxx:DisplayMode>
            </gpxx:WaypointExtension>
        </extensions>
    </wpt>
    <trk>
        <name>April 2009 - Sunday</name>
        <extensions>
            <gpxx:TrackExtension xmlns:gpxx="http://www.garmin.com/xmlschemas/GpxExtensions/v3">
                <gpxx:DisplayColor>Green</gpxx:DisplayColor>
            </gpxx:TrackExtension>
        </extensions>
        <trkseg>
            <trkpt lon="99.229938" lat="13.555387">
                <ele>341.405273</ele>
                <time>2009-04-26T02:57:53Z</time>
            </trkpt>
            <trkpt lon="99.229681" lat="13.555268">
                <ele>340.444092</ele>
                <time>2009-04-26T02:58:05Z</time>
            </trkpt>
            <trkpt lon="99.229507" lat="13.555388">
                <ele>338.040772</ele>
                <time>2009-04-26T02:58:09Z</time>
            </trkpt>
            <trkpt lon="99.229253" lat="13.555524">
                <ele>334.676148</ele>
                <time>2009-04-26T02:58:13Z</time>
            </trkpt>
            <trkpt lon="99.228998" lat="13.555600">
                <ele>333.234131</ele>
                <time>2009-04-26T02:58:17Z</time>
            </trkpt>
            <trkpt lon="99.228890" lat="13.555817">
                <ele>332.753540</ele>
                <time>2009-04-26T02:58:23Z</time>
            </trkpt>
            <trkpt lon="99.228996" lat="13.556749">
                <ele>328.427612</ele>
                <time>2009-04-26T02:58:40Z</time>
            </trkpt>
            <trkpt lon="99.228982" lat="13.557738">
                <ele>317.853027</ele>
                <time>2009-04-26T02:58:51Z</time>
            </trkpt>
            <trkpt lon="99.228946" lat="13.559087">
                <ele>306.797852</ele>
                <time>2009-04-26T02:59:02Z</time>
            </trkpt>
            <trkpt lon="99.228560" lat="13.559862">
                <ele>304.875244</ele>
                <time>2009-04-26T02:59:10Z</time>
            </trkpt>
            <trkpt lon="99.228358" lat="13.560079">
                <ele>303.433227</ele>
                <time>2009-04-26T02:59:13Z</time>
            </trkpt>
            <trkpt lon="99.227409" lat="13.560978">
                <ele>297.665405</ele>
                <time>2009-04-26T02:59:27Z</time>
            </trkpt>
            <trkpt lon="99.227232" lat="13.561326">
                <ele>296.223511</ele>
                <time>2009-04-26T02:59:31Z</time>
            </trkpt>
            <trkpt lon="99.227177" lat="13.561717">
                <ele>293.339356</ele>
                <time>2009-04-26T02:59:35Z</time>
            </trkpt>
            <trkpt lon="99.227364" lat="13.563211">
                <ele>273.151856</ele>
                <time>2009-04-26T02:59:48Z</time>
            </trkpt>
            <trkpt lon="99.227407" lat="13.563339">
                <ele>271.229126</ele>
                <time>2009-04-26T02:59:49Z</time>
            </trkpt>
            <trkpt lon="99.228102" lat="13.564697">
                <ele>261.135254</ele>
                <time>2009-04-26T03:00:01Z</time>
            </trkpt>
            <trkpt lon="99.228337" lat="13.565979">
                <ele>255.848023</ele>
                <time>2009-04-26T03:00:13Z</time>
            </trkpt>
            <trkpt lon="99.228342" lat="13.566339">
                <ele>254.886597</ele>
                <time>2009-04-26T03:00:17Z</time>
            </trkpt>
            <trkpt lon="99.228719" lat="13.566997">
                <ele>252.002808</ele>
                <time>2009-04-26T03:00:26Z</time>
            </trkpt>
            <trkpt lon="99.229055" lat="13.567800">
                <ele>248.638184</ele>
                <time>2009-04-26T03:00:37Z</time>
            </trkpt>
            <trkpt lon="99.229012" lat="13.568127">
                <ele>247.676758</ele>
                <time>2009-04-26T03:00:41Z</time>
            </trkpt>
            <trkpt lon="99.228652" lat="13.569151">
                <ele>246.234863</ele>
                <time>2009-04-26T03:00:57Z</time>
            </trkpt>
            <trkpt lon="99.228623" lat="13.569232">
                <ele>245.754150</ele>
                <time>2009-04-26T03:01:08Z</time>
            </trkpt>
            <trkpt lon="99.228607" lat="13.569275">
                <ele>245.754150</ele>
                <time>2009-04-26T03:01:24Z</time>
            </trkpt>
            <trkpt lon="99.228595" lat="13.569290">
                <ele>246.234863</ele>
                <time>2009-04-26T03:01:47Z</time>
            </trkpt>
            <trkpt lon="99.228606" lat="13.569301">
                <ele>245.754150</ele>
                <time>2009-04-26T03:02:22Z</time>
            </trkpt>
            <trkpt lon="99.228608" lat="13.569315">
                <ele>245.754150</ele>
                <time>2009-04-26T03:02:24Z</time>
            </trkpt>
            <trkpt lon="99.228631" lat="13.569733">
                <ele>245.273438</ele>
                <time>2009-04-26T03:02:37Z</time>
            </trkpt>
            <trkpt lon="99.228729" lat="13.570247">
                <ele>247.196045</ele>
                <time>2009-04-26T03:02:53Z</time>
            </trkpt>
            <trkpt lon="99.228806" lat="13.570649">
                <ele>249.118774</ele>
                <time>2009-04-26T03:03:10Z</time>
            </trkpt>
            <trkpt lon="99.228955" lat="13.571172">
                <ele>251.522095</ele>
                <time>2009-04-26T03:03:28Z</time>
            </trkpt>
            <trkpt lon="99.229399" lat="13.572001">
                <ele>251.041382</ele>
                <time>2009-04-26T03:03:49Z</time>
            </trkpt>
            <trkpt lon="99.229830" lat="13.573007">
                <ele>250.560791</ele>
                <time>2009-04-26T03:04:10Z</time>
            </trkpt>
            <trkpt lon="99.230190" lat="13.574238">
                <ele>248.157593</ele>
                <time>2009-04-26T03:04:32Z</time>
            </trkpt>
            <trkpt lon="99.230219" lat="13.574500">
                <ele>246.234863</ele>
                <time>2009-04-26T03:04:38Z</time>
            </trkpt>
            <trkpt lon="99.230143" lat="13.574566">
                <ele>246.715454</ele>
                <time>2009-04-26T03:04:43Z</time>
            </trkpt>
            <trkpt lon="99.229769" lat="13.574643">
                <ele>249.118774</ele>
                <time>2009-04-26T03:05:00Z</time>
            </trkpt>
            <trkpt lon="99.229450" lat="13.574824">
                <ele>251.522095</ele>
                <time>2009-04-26T03:05:16Z</time>
            </trkpt>
            <trkpt lon="99.229045" lat="13.575202">
                <ele>253.925415</ele>
                <time>2009-04-26T03:05:34Z</time>
            </trkpt>
            <trkpt lon="99.228576" lat="13.575691">
                <ele>254.406006</ele>
                <time>2009-04-26T03:05:50Z</time>
            </trkpt>
            <trkpt lon="99.228530" lat="13.575966">
                <ele>255.367310</ele>
                <time>2009-04-26T03:06:01Z</time>
            </trkpt>
            <trkpt lon="99.228841" lat="13.576323">
                <ele>255.367310</ele>
                <time>2009-04-26T03:06:15Z</time>
            </trkpt>
            <trkpt lon="99.228965" lat="13.576581">
                <ele>256.328735</ele>
                <time>2009-04-26T03:06:27Z</time>
            </trkpt>
            <trkpt lon="99.228780" lat="13.576747">
                <ele>257.770752</ele>
                <time>2009-04-26T03:06:41Z</time>
            </trkpt>
            <trkpt lon="99.228328" lat="13.576968">
                <ele>258.251343</ele>
                <time>2009-04-26T03:07:02Z</time>
            </trkpt>
            <trkpt lon="99.227890" lat="13.577303">
                <ele>258.731934</ele>
                <time>2009-04-26T03:07:21Z</time>
            </trkpt>
            <trkpt lon="99.227584" lat="13.577600">
                <ele>258.251343</ele>
                <time>2009-04-26T03:07:33Z</time>
            </trkpt>
            <trkpt lon="99.227041" lat="13.577885">
                <ele>258.251343</ele>
                <time>2009-04-26T03:07:48Z</time>
            </trkpt>
            <trkpt lon="99.226900" lat="13.577586">
                <ele>256.809326</ele>
                <time>2009-04-26T03:07:59Z</time>
            </trkpt>
            <trkpt lon="99.226780" lat="13.577286">
                <ele>259.212647</ele>
                <time>2009-04-26T03:08:10Z</time>
            </trkpt>
            <trkpt lon="99.226659" lat="13.576931">
                <ele>263.057861</ele>
                <time>2009-04-26T03:08:28Z</time>
            </trkpt>
            <trkpt lon="99.226528" lat="13.576948">
                <ele>264.499878</ele>
                <time>2009-04-26T03:08:36Z</time>
            </trkpt>
            <trkpt lon="99.226214" lat="13.577039">
                <ele>265.461304</ele>
                <time>2009-04-26T03:08:51Z</time>
            </trkpt>
            <trkpt lon="99.225692" lat="13.577205">
                <ele>266.903198</ele>
                <time>2009-04-26T03:09:12Z</time>
            </trkpt>
            <trkpt lon="99.225096" lat="13.577409">
                <ele>267.383911</ele>
                <time>2009-04-26T03:09:31Z</time>
            </trkpt>
            <trkpt lon="99.224355" lat="13.577646">
                <ele>270.267700</ele>
                <time>2009-04-26T03:09:52Z</time>
            </trkpt>
            <trkpt lon="99.223913" lat="13.577815">
                <ele>273.632446</ele>
                <time>2009-04-26T03:10:11Z</time>
            </trkpt>
            <trkpt lon="99.223612" lat="13.577889">
                <ele>275.074463</ele>
                <time>2009-04-26T03:10:26Z</time>
            </trkpt>
            <trkpt lon="99.223198" lat="13.578019">
                <ele>276.516357</ele>
                <time>2009-04-26T03:10:43Z</time>
            </trkpt>
            <trkpt lon="99.222776" lat="13.578160">
                <ele>277.958252</ele>
                <time>2009-04-26T03:10:59Z</time>
            </trkpt>
            <trkpt lon="99.222423" lat="13.578318">
                <ele>281.803589</ele>
                <time>2009-04-26T03:11:15Z</time>
            </trkpt>
            <trkpt lon="99.222211" lat="13.578383">
                <ele>285.168213</ele>
                <time>2009-04-26T03:11:31Z</time>
            </trkpt>
            <trkpt lon="99.222061" lat="13.578398">
                <ele>287.090820</ele>
                <time>2009-04-26T03:11:41Z</time>
            </trkpt>
            <trkpt lon="99.221867" lat="13.578288">
                <ele>289.013550</ele>
                <time>2009-04-26T03:12:01Z</time>
            </trkpt>
            <trkpt lon="99.221869" lat="13.578285">
                <ele>290.936157</ele>
                <time>2009-04-26T03:12:27Z</time>
            </trkpt>
            <trkpt lon="99.221576" lat="13.578156">
                <ele>291.897461</ele>
                <time>2009-04-26T03:12:43Z</time>
            </trkpt>
            <trkpt lon="99.221200" lat="13.577983">
                <ele>293.820068</ele>
                <time>2009-04-26T03:13:02Z</time>
            </trkpt>
            <trkpt lon="99.220715" lat="13.577767">
                <ele>297.184692</ele>
                <time>2009-04-26T03:13:23Z</time>
            </trkpt>
            <trkpt lon="99.220380" lat="13.577618">
                <ele>300.549316</ele>
                <time>2009-04-26T03:13:41Z</time>
            </trkpt>
            <trkpt lon="99.220052" lat="13.577476">
                <ele>303.433227</ele>
                <time>2009-04-26T03:14:00Z</time>
            </trkpt>
            <trkpt lon="99.219658" lat="13.577306">
                <ele>306.317261</ele>
                <time>2009-04-26T03:14:20Z</time>
            </trkpt>
            <trkpt lon="99.219302" lat="13.577138">
                <ele>309.201172</ele>
                <time>2009-04-26T03:14:39Z</time>
            </trkpt>
            <trkpt lon="99.218985" lat="13.576989">
                <ele>314.007812</ele>
                <time>2009-04-26T03:14:59Z</time>
            </trkpt>
            <trkpt lon="99.218723" lat="13.576878">
                <ele>316.891724</ele>
                <time>2009-04-26T03:15:19Z</time>
            </trkpt>
            <trkpt lon="99.218456" lat="13.576767">
                <ele>320.737060</ele>
                <time>2009-04-26T03:15:40Z</time>
            </trkpt>
            <trkpt lon="99.218327" lat="13.576711">
                <ele>322.659668</ele>
                <time>2009-04-26T03:15:56Z</time>
            </trkpt>
            <trkpt lon="99.218208" lat="13.576679">
                <ele>324.101562</ele>
                <time>2009-04-26T03:16:10Z</time>
            </trkpt>
            <trkpt lon="99.217985" lat="13.576572">
                <ele>327.946777</ele>
                <time>2009-04-26T03:16:34Z</time>
            </trkpt>
            <trkpt lon="99.217917" lat="13.576538">
                <ele>327.946777</ele>
                <time>2009-04-26T03:16:50Z</time>
            </trkpt>
            <trkpt lon="99.217906" lat="13.576565">
                <ele>328.908325</ele>
                <time>2009-04-26T03:17:02Z</time>
            </trkpt>
            <trkpt lon="99.217757" lat="13.576744">
                <ele>329.388916</ele>
                <time>2009-04-26T03:17:18Z</time>
            </trkpt>
            <trkpt lon="99.217555" lat="13.576957">
                <ele>328.908325</ele>
                <time>2009-04-26T03:17:33Z</time>
            </trkpt>
            <trkpt lon="99.217331" lat="13.577276">
                <ele>327.946777</ele>
                <time>2009-04-26T03:17:46Z</time>
            </trkpt>
            <trkpt lon="99.217007" lat="13.577415">
                <ele>325.543579</ele>
                <time>2009-04-26T03:17:58Z</time>
            </trkpt>
            <trkpt lon="99.216560" lat="13.577621">
                <ele>323.620972</ele>
                <time>2009-04-26T03:18:11Z</time>
            </trkpt>
            <trkpt lon="99.216202" lat="13.577942">
                <ele>317.853027</ele>
                <time>2009-04-26T03:18:25Z</time>
            </trkpt>
            <trkpt lon="99.215994" lat="13.578259">
                <ele>314.969116</ele>
                <time>2009-04-26T03:18:36Z</time>
            </trkpt>
            <trkpt lon="99.215941" lat="13.578419">
                <ele>314.007812</ele>
                <time>2009-04-26T03:18:40Z</time>
            </trkpt>
            <trkpt lon="99.215817" lat="13.578708">
                <ele>313.046509</ele>
                <time>2009-04-26T03:18:48Z</time>
            </trkpt>
            <trkpt lon="99.215824" lat="13.578877">
                <ele>314.488403</ele>
                <time>2009-04-26T03:18:53Z</time>
            </trkpt>
            <trkpt lon="99.215947" lat="13.579132">
                <ele>313.046509</ele>
                <time>2009-04-26T03:19:02Z</time>
            </trkpt>
            <trkpt lon="99.216089" lat="13.579417">
                <ele>308.239868</ele>
                <time>2009-04-26T03:19:16Z</time>
            </trkpt>
            <trkpt lon="99.216242" lat="13.579738">
                <ele>305.355957</ele>
                <time>2009-04-26T03:19:27Z</time>
            </trkpt>
            <trkpt lon="99.216457" lat="13.580156">
                <ele>303.913940</ele>
                <time>2009-04-26T03:19:41Z</time>
            </trkpt>
            <trkpt lon="99.216471" lat="13.580186">
                <ele>303.913940</ele>
                <time>2009-04-26T03:19:42Z</time>
            </trkpt>
            <trkpt lon="99.216745" lat="13.580634">
                <ele>303.913940</ele>
                <time>2009-04-26T03:19:58Z</time>
            </trkpt>
            <trkpt lon="99.216916" lat="13.581105">
                <ele>299.588013</ele>
                <time>2009-04-26T03:20:13Z</time>
            </trkpt>
            <trkpt lon="99.216770" lat="13.581597">
                <ele>296.704102</ele>
                <time>2009-04-26T03:20:29Z</time>
            </trkpt>
            <trkpt lon="99.216572" lat="13.581869">
                <ele>296.704102</ele>
                <time>2009-04-26T03:20:41Z</time>
            </trkpt>
            <trkpt lon="99.216281" lat="13.582276">
                <ele>294.781372</ele>
                <time>2009-04-26T03:20:55Z</time>
            </trkpt>
            <trkpt lon="99.216024" lat="13.582514">
                <ele>289.974853</ele>
                <time>2009-04-26T03:21:07Z</time>
            </trkpt>
            <trkpt lon="99.215885" lat="13.582714">
                <ele>287.571411</ele>
                <time>2009-04-26T03:21:19Z</time>
            </trkpt>
            <trkpt lon="99.215659" lat="13.582963">
                <ele>286.129517</ele>
                <time>2009-04-26T03:21:32Z</time>
            </trkpt>
            <trkpt lon="99.215397" lat="13.583133">
                <ele>286.129517</ele>
                <time>2009-04-26T03:21:41Z</time>
            </trkpt>
            <trkpt lon="99.215184" lat="13.583553">
                <ele>284.206909</ele>
                <time>2009-04-26T03:21:52Z</time>
            </trkpt>
            <trkpt lon="99.215191" lat="13.583578">
                <ele>284.206909</ele>
                <time>2009-04-26T03:22:04Z</time>
            </trkpt>
            <trkpt lon="99.215190" lat="13.583574">
                <ele>284.206909</ele>
                <time>2009-04-26T03:22:06Z</time>
            </trkpt>
            <trkpt lon="99.215138" lat="13.583535">
                <ele>283.245606</ele>
                <time>2009-04-26T03:22:11Z</time>
            </trkpt>
            <trkpt lon="99.214958" lat="13.583596">
                <ele>284.206909</ele>
                <time>2009-04-26T03:22:19Z</time>
            </trkpt>
            <trkpt lon="99.214818" lat="13.583854">
                <ele>284.206909</ele>
                <time>2009-04-26T03:22:29Z</time>
            </trkpt>
            <trkpt lon="99.214835" lat="13.584167">
                <ele>284.687622</ele>
                <time>2009-04-26T03:22:39Z</time>
            </trkpt>
            <trkpt lon="99.214723" lat="13.584214">
                <ele>283.726196</ele>
                <time>2009-04-26T03:22:43Z</time>
            </trkpt>
            <trkpt lon="99.214433" lat="13.584314">
                <ele>283.726196</ele>
                <time>2009-04-26T03:22:54Z</time>
            </trkpt>
            <trkpt lon="99.214427" lat="13.584475">
                <ele>283.245606</ele>
                <time>2009-04-26T03:23:00Z</time>
            </trkpt>
            <trkpt lon="99.214482" lat="13.584875">
                <ele>280.361694</ele>
                <time>2009-04-26T03:23:10Z</time>
            </trkpt>
            <trkpt lon="99.214615" lat="13.584965">
                <ele>277.958252</ele>
                <time>2009-04-26T03:23:14Z</time>
            </trkpt>
            <trkpt lon="99.214836" lat="13.585150">
                <ele>276.035644</ele>
                <time>2009-04-26T03:23:25Z</time>
            </trkpt>
            <trkpt lon="99.214812" lat="13.585522">
                <ele>270.267700</ele>
                <time>2009-04-26T03:23:35Z</time>
            </trkpt>
            <trkpt lon="99.215104" lat="13.585723">
                <ele>269.306519</ele>
                <time>2009-04-26T03:23:47Z</time>
            </trkpt>
            <trkpt lon="99.215401" lat="13.585658">
                <ele>267.864502</ele>
                <time>2009-04-26T03:24:01Z</time>
            </trkpt>
            <trkpt lon="99.215875" lat="13.585567">
                <ele>264.980591</ele>
                <time>2009-04-26T03:24:18Z</time>
            </trkpt>
            <trkpt lon="99.216143" lat="13.585652">
                <ele>269.787109</ele>
                <time>2009-04-26T03:24:32Z</time>
            </trkpt>
            <trkpt lon="99.216225" lat="13.585759">
                <ele>268.825806</ele>
                <time>2009-04-26T03:24:45Z</time>
            </trkpt>
            <trkpt lon="99.216240" lat="13.585795">
                <ele>268.825806</ele>
                <time>2009-04-26T03:24:58Z</time>
            </trkpt>
            <trkpt lon="99.216256" lat="13.585834">
                <ele>267.864502</ele>
                <time>2009-04-26T03:25:13Z</time>
            </trkpt>
            <trkpt lon="99.216229" lat="13.585844">
                <ele>266.422485</ele>
                <time>2009-04-26T03:25:22Z</time>
            </trkpt>
            <trkpt lon="99.216135" lat="13.585863">
                <ele>265.941894</ele>
                <time>2009-04-26T03:25:49Z</time>
            </trkpt>
            <trkpt lon="99.215944" lat="13.585874">
                <ele>263.538574</ele>
                <time>2009-04-26T03:25:54Z</time>
            </trkpt>
            <trkpt lon="99.215636" lat="13.585981">
                <ele>260.654541</ele>
                <time>2009-04-26T03:25:59Z</time>
            </trkpt>
            <trkpt lon="99.214848" lat="13.586397">
                <ele>261.135254</ele>
                <time>2009-04-26T03:26:13Z</time>
            </trkpt>
            <trkpt lon="99.214823" lat="13.586549">
                <ele>262.577148</ele>
                <time>2009-04-26T03:26:19Z</time>
            </trkpt>
            <trkpt lon="99.214908" lat="13.587163">
                <ele>258.251343</ele>
                <time>2009-04-26T03:26:33Z</time>
            </trkpt>
            <trkpt lon="99.214973" lat="13.587592">
                <ele>256.809326</ele>
                <time>2009-04-26T03:26:43Z</time>
            </trkpt>
            <trkpt lon="99.214923" lat="13.587756">
                <ele>255.848023</ele>
                <time>2009-04-26T03:26:47Z</time>
            </trkpt>
            <trkpt lon="99.214859" lat="13.587853">
                <ele>255.848023</ele>
                <time>2009-04-26T03:26:50Z</time>
            </trkpt>
            <trkpt lon="99.214947" lat="13.588235">
                <ele>256.328735</ele>
                <time>2009-04-26T03:27:01Z</time>
            </trkpt>
            <trkpt lon="99.215131" lat="13.588467">
                <ele>253.925415</ele>
                <time>2009-04-26T03:27:12Z</time>
            </trkpt>
            <trkpt lon="99.215326" lat="13.588675">
                <ele>251.041382</ele>
                <time>2009-04-26T03:27:26Z</time>
            </trkpt>
            <trkpt lon="99.215331" lat="13.588667">
                <ele>252.483398</ele>
                <time>2009-04-26T03:27:50Z</time>
            </trkpt>
            <trkpt lon="99.215539" lat="13.588818">
                <ele>250.080200</ele>
                <time>2009-04-26T03:28:02Z</time>
            </trkpt>
            <trkpt lon="99.215755" lat="13.589038">
                <ele>250.080200</ele>
                <time>2009-04-26T03:28:15Z</time>
            </trkpt>
            <trkpt lon="99.215824" lat="13.589124">
                <ele>249.599487</ele>
                <time>2009-04-26T03:28:21Z</time>
            </trkpt>
            <trkpt lon="99.215760" lat="13.589203">
                <ele>250.080200</ele>
                <time>2009-04-26T03:28:26Z</time>
            </trkpt>
            <trkpt lon="99.215226" lat="13.589406">
                <ele>248.157593</ele>
                <time>2009-04-26T03:28:39Z</time>
            </trkpt>
            <trkpt lon="99.215036" lat="13.589466">
                <ele>247.676758</ele>
                <time>2009-04-26T03:28:43Z</time>
            </trkpt>
            <trkpt lon="99.214805" lat="13.589581">
                <ele>247.676758</ele>
                <time>2009-04-26T03:28:49Z</time>
            </trkpt>
            <trkpt lon="99.214411" lat="13.589663">
                <ele>246.715454</ele>
                <time>2009-04-26T03:28:57Z</time>
            </trkpt>
            <trkpt lon="99.214133" lat="13.589664">
                <ele>248.638184</ele>
                <time>2009-04-26T03:29:10Z</time>
            </trkpt>
            <trkpt lon="99.213652" lat="13.589816">
                <ele>248.638184</ele>
                <time>2009-04-26T03:29:27Z</time>
            </trkpt>
            <trkpt lon="99.213239" lat="13.590021">
                <ele>248.638184</ele>
                <time>2009-04-26T03:29:42Z</time>
            </trkpt>
            <trkpt lon="99.213139" lat="13.590261">
                <ele>247.676758</ele>
                <time>2009-04-26T03:29:48Z</time>
            </trkpt>
            <trkpt lon="99.212793" lat="13.590479">
                <ele>249.118774</ele>
                <time>2009-04-26T03:30:01Z</time>
            </trkpt>
            <trkpt lon="99.212421" lat="13.590752">
                <ele>251.522095</ele>
                <time>2009-04-26T03:30:16Z</time>
            </trkpt>
            <trkpt lon="99.212355" lat="13.591157">
                <ele>252.483398</ele>
                <time>2009-04-26T03:30:30Z</time>
            </trkpt>
            <trkpt lon="99.212387" lat="13.591451">
                <ele>252.483398</ele>
                <time>2009-04-26T03:30:38Z</time>
            </trkpt>
            <trkpt lon="99.212168" lat="13.591917">
                <ele>254.406006</ele>
                <time>2009-04-26T03:30:53Z</time>
            </trkpt>
            <trkpt lon="99.211947" lat="13.592163">
                <ele>256.809326</ele>
                <time>2009-04-26T03:31:09Z</time>
            </trkpt>
            <trkpt lon="99.211857" lat="13.592250">
                <ele>257.770752</ele>
                <time>2009-04-26T03:31:21Z</time>
            </trkpt>
            <trkpt lon="99.211719" lat="13.592393">
                <ele>260.173950</ele>
                <time>2009-04-26T03:31:41Z</time>
            </trkpt>
            <trkpt lon="99.211699" lat="13.592427">
                <ele>260.654541</ele>
                <time>2009-04-26T03:31:45Z</time>
            </trkpt>
            <trkpt lon="99.211744" lat="13.592666">
                <ele>263.057861</ele>
                <time>2009-04-26T03:31:59Z</time>
            </trkpt>
            <trkpt lon="99.211762" lat="13.592963">
                <ele>266.422485</ele>
                <time>2009-04-26T03:32:15Z</time>
            </trkpt>
            <trkpt lon="99.211790" lat="13.593088">
                <ele>268.825806</ele>
                <time>2009-04-26T03:32:24Z</time>
            </trkpt>
            <trkpt lon="99.211832" lat="13.593352">
                <ele>271.709717</ele>
                <time>2009-04-26T03:32:43Z</time>
            </trkpt>
            <trkpt lon="99.211884" lat="13.593619">
                <ele>275.074463</ele>
                <time>2009-04-26T03:33:02Z</time>
            </trkpt>
            <trkpt lon="99.211914" lat="13.593873">
                <ele>276.516357</ele>
                <time>2009-04-26T03:33:19Z</time>
            </trkpt>
            <trkpt lon="99.212003" lat="13.594353">
                <ele>275.555054</ele>
                <time>2009-04-26T03:33:35Z</time>
            </trkpt>
            <trkpt lon="99.212247" lat="13.595195">
                <ele>270.267700</ele>
                <time>2009-04-26T03:33:56Z</time>
            </trkpt>
            <trkpt lon="99.212278" lat="13.595417">
                <ele>267.864502</ele>
                <time>2009-04-26T03:34:02Z</time>
            </trkpt>
            <trkpt lon="99.212215" lat="13.595866">
                <ele>267.383911</ele>
                <time>2009-04-26T03:34:16Z</time>
            </trkpt>
            <trkpt lon="99.212389" lat="13.596086">
                <ele>268.345093</ele>
                <time>2009-04-26T03:34:32Z</time>
            </trkpt>
            <trkpt lon="99.212491" lat="13.596194">
                <ele>268.825806</ele>
                <time>2009-04-26T03:34:45Z</time>
            </trkpt>
            <trkpt lon="99.212564" lat="13.596267">
                <ele>271.229126</ele>
                <time>2009-04-26T03:35:03Z</time>
            </trkpt>
            <trkpt lon="99.212581" lat="13.596314">
                <ele>273.632446</ele>
                <time>2009-04-26T03:35:19Z</time>
            </trkpt>
            <trkpt lon="99.212594" lat="13.596358">
                <ele>274.593750</ele>
                <time>2009-04-26T03:35:43Z</time>
            </trkpt>
            <trkpt lon="99.212612" lat="13.596402">
                <ele>279.880859</ele>
                <time>2009-04-26T03:36:02Z</time>
            </trkpt>
            <trkpt lon="99.212633" lat="13.596441">
                <ele>282.284302</ele>
                <time>2009-04-26T03:36:17Z</time>
            </trkpt>
            <trkpt lon="99.212663" lat="13.596516">
                <ele>285.168213</ele>
                <time>2009-04-26T03:36:32Z</time>
            </trkpt>
            <trkpt lon="99.212706" lat="13.596597">
                <ele>288.052246</ele>
                <time>2009-04-26T03:36:47Z</time>
            </trkpt>
            <trkpt lon="99.212735" lat="13.596711">
                <ele>289.494141</ele>
                <time>2009-04-26T03:37:06Z</time>
            </trkpt>
            <trkpt lon="99.212748" lat="13.596763">
                <ele>290.936157</ele>
                <time>2009-04-26T03:37:26Z</time>
            </trkpt>
            <trkpt lon="99.212733" lat="13.596841">
                <ele>291.897461</ele>
                <time>2009-04-26T03:37:46Z</time>
            </trkpt>
            <trkpt lon="99.212732" lat="13.596889">
                <ele>293.820068</ele>
                <time>2009-04-26T03:38:01Z</time>
            </trkpt>
            <trkpt lon="99.212776" lat="13.596941">
                <ele>292.858765</ele>
                <time>2009-04-26T03:38:16Z</time>
            </trkpt>
            <trkpt lon="99.212823" lat="13.597005">
                <ele>293.820068</ele>
                <time>2009-04-26T03:38:33Z</time>
            </trkpt>
            <trkpt lon="99.212831" lat="13.597025">
                <ele>294.300781</ele>
                <time>2009-04-26T03:38:35Z</time>
            </trkpt>
            <trkpt lon="99.212824" lat="13.597206">
                <ele>289.494141</ele>
                <time>2009-04-26T03:38:52Z</time>
            </trkpt>
            <trkpt lon="99.212820" lat="13.597257">
                <ele>285.648804</ele>
                <time>2009-04-26T03:39:05Z</time>
            </trkpt>
            <trkpt lon="99.212817" lat="13.597293">
                <ele>285.168213</ele>
                <time>2009-04-26T03:39:16Z</time>
            </trkpt>
            <trkpt lon="99.212790" lat="13.597454">
                <ele>285.648804</ele>
                <time>2009-04-26T03:39:30Z</time>
            </trkpt>
            <trkpt lon="99.212796" lat="13.597647">
                <ele>284.206909</ele>
                <time>2009-04-26T03:39:46Z</time>
            </trkpt>
            <trkpt lon="99.212811" lat="13.597685">
                <ele>283.245606</ele>
                <time>2009-04-26T03:40:01Z</time>
            </trkpt>
            <trkpt lon="99.212806" lat="13.597698">
                <ele>284.206909</ele>
                <time>2009-04-26T03:40:08Z</time>
            </trkpt>
            <trkpt lon="99.212782" lat="13.597718">
                <ele>283.726196</ele>
                <time>2009-04-26T03:40:11Z</time>
            </trkpt>
            <trkpt lon="99.212633" lat="13.598030">
                <ele>285.648804</ele>
                <time>2009-04-26T03:40:28Z</time>
            </trkpt>
            <trkpt lon="99.212475" lat="13.598521">
                <ele>281.322998</ele>
                <time>2009-04-26T03:40:45Z</time>
            </trkpt>
            <trkpt lon="99.212738" lat="13.598877">
                <ele>279.880859</ele>
                <time>2009-04-26T03:40:55Z</time>
            </trkpt>
            <trkpt lon="99.213122" lat="13.599408">
                <ele>274.593750</ele>
                <time>2009-04-26T03:41:11Z</time>
            </trkpt>
            <trkpt lon="99.213235" lat="13.599614">
                <ele>275.074463</ele>
                <time>2009-04-26T03:41:20Z</time>
            </trkpt>
            <trkpt lon="99.213278" lat="13.599717">
                <ele>277.958252</ele>
                <time>2009-04-26T03:41:35Z</time>
            </trkpt>
            <trkpt lon="99.213337" lat="13.599865">
                <ele>280.361694</ele>
                <time>2009-04-26T03:41:54Z</time>
            </trkpt>
            <trkpt lon="99.213412" lat="13.600030">
                <ele>279.880859</ele>
                <time>2009-04-26T03:42:07Z</time>
            </trkpt>
            <trkpt lon="99.213411" lat="13.600241">
                <ele>283.245606</ele>
                <time>2009-04-26T03:42:17Z</time>
            </trkpt>
            <trkpt lon="99.213483" lat="13.600597">
                <ele>278.919678</ele>
                <time>2009-04-26T03:42:32Z</time>
            </trkpt>
            <trkpt lon="99.213768" lat="13.600795">
                <ele>276.035644</ele>
                <time>2009-04-26T03:42:41Z</time>
            </trkpt>
            <trkpt lon="99.214031" lat="13.600758">
                <ele>276.035644</ele>
                <time>2009-04-26T03:42:55Z</time>
            </trkpt>
            <trkpt lon="99.214383" lat="13.600353">
                <ele>270.748413</ele>
                <time>2009-04-26T03:43:09Z</time>
            </trkpt>
            <trkpt lon="99.214673" lat="13.600019">
                <ele>266.422485</ele>
                <time>2009-04-26T03:43:19Z</time>
            </trkpt>
            <trkpt lon="99.215099" lat="13.599761">
                <ele>264.499878</ele>
                <time>2009-04-26T03:43:32Z</time>
            </trkpt>
            <trkpt lon="99.215116" lat="13.599750">
                <ele>264.499878</ele>
                <time>2009-04-26T03:43:33Z</time>
            </trkpt>
            <trkpt lon="99.215164" lat="13.599756">
                <ele>264.980591</ele>
                <time>2009-04-26T03:43:36Z</time>
            </trkpt>
            <trkpt lon="99.215220" lat="13.599817">
                <ele>265.941894</ele>
                <time>2009-04-26T03:43:41Z</time>
            </trkpt>
            <trkpt lon="99.215201" lat="13.599910">
                <ele>267.864502</ele>
                <time>2009-04-26T03:43:53Z</time>
            </trkpt>
            <trkpt lon="99.215175" lat="13.600005">
                <ele>269.306519</ele>
                <time>2009-04-26T03:44:10Z</time>
            </trkpt>
            <trkpt lon="99.215154" lat="13.600041">
                <ele>269.787109</ele>
                <time>2009-04-26T03:44:40Z</time>
            </trkpt>
            <trkpt lon="99.215154" lat="13.600051">
                <ele>270.748413</ele>
                <time>2009-04-26T03:45:07Z</time>
            </trkpt>
            <trkpt lon="99.215163" lat="13.600035">
                <ele>273.632446</ele>
                <time>2009-04-26T03:45:41Z</time>
            </trkpt>
            <trkpt lon="99.215198" lat="13.600023">
                <ele>272.671143</ele>
                <time>2009-04-26T03:45:46Z</time>
            </trkpt>
            <trkpt lon="99.215450" lat="13.600053">
                <ele>269.787109</ele>
                <time>2009-04-26T03:46:02Z</time>
            </trkpt>
            <trkpt lon="99.215718" lat="13.600080">
                <ele>266.422485</ele>
                <time>2009-04-26T03:46:15Z</time>
            </trkpt>
            <trkpt lon="99.215737" lat="13.600099">
                <ele>266.903198</ele>
                <time>2009-04-26T03:46:17Z</time>
            </trkpt>
            <trkpt lon="99.215814" lat="13.600212">
                <ele>266.422485</ele>
                <time>2009-04-26T03:46:28Z</time>
            </trkpt>
            <trkpt lon="99.215946" lat="13.600331">
                <ele>267.864502</ele>
                <time>2009-04-26T03:46:46Z</time>
            </trkpt>
            <trkpt lon="99.216184" lat="13.600359">
                <ele>268.345093</ele>
                <time>2009-04-26T03:47:03Z</time>
            </trkpt>
            <trkpt lon="99.216570" lat="13.600404">
                <ele>265.461304</ele>
                <time>2009-04-26T03:47:20Z</time>
            </trkpt>
            <trkpt lon="99.216625" lat="13.600512">
                <ele>263.538574</ele>
                <time>2009-04-26T03:47:27Z</time>
            </trkpt>
            <trkpt lon="99.216591" lat="13.600938">
                <ele>264.019287</ele>
                <time>2009-04-26T03:47:45Z</time>
            </trkpt>
            <trkpt lon="99.216566" lat="13.601196">
                <ele>267.383911</ele>
                <time>2009-04-26T03:48:03Z</time>
            </trkpt>
            <trkpt lon="99.216537" lat="13.601478">
                <ele>269.306519</ele>
                <time>2009-04-26T03:48:21Z</time>
            </trkpt>
            <trkpt lon="99.216601" lat="13.601731">
                <ele>269.306519</ele>
                <time>2009-04-26T03:48:33Z</time>
            </trkpt>
            <trkpt lon="99.216660" lat="13.602011">
                <ele>271.229126</ele>
                <time>2009-04-26T03:48:51Z</time>
            </trkpt>
            <trkpt lon="99.216741" lat="13.602313">
                <ele>270.267700</ele>
                <time>2009-04-26T03:49:04Z</time>
            </trkpt>
            <trkpt lon="99.216910" lat="13.602675">
                <ele>273.632446</ele>
                <time>2009-04-26T03:49:25Z</time>
            </trkpt>
            <trkpt lon="99.217041" lat="13.603089">
                <ele>272.190430</ele>
                <time>2009-04-26T03:49:42Z</time>
            </trkpt>
            <trkpt lon="99.217313" lat="13.603759">
                <ele>266.422485</ele>
                <time>2009-04-26T03:50:00Z</time>
            </trkpt>
            <trkpt lon="99.217232" lat="13.604045">
                <ele>265.461304</ele>
                <time>2009-04-26T03:50:12Z</time>
            </trkpt>
            <trkpt lon="99.217140" lat="13.604281">
                <ele>268.345093</ele>
                <time>2009-04-26T03:50:24Z</time>
            </trkpt>
            <trkpt lon="99.217001" lat="13.604456">
                <ele>272.671143</ele>
                <time>2009-04-26T03:50:39Z</time>
            </trkpt>
            <trkpt lon="99.216807" lat="13.604606">
                <ele>276.035644</ele>
                <time>2009-04-26T03:50:57Z</time>
            </trkpt>
            <trkpt lon="99.216735" lat="13.604878">
                <ele>277.477661</ele>
                <time>2009-04-26T03:51:15Z</time>
            </trkpt>
            <trkpt lon="99.216826" lat="13.605063">
                <ele>275.074463</ele>
                <time>2009-04-26T03:51:25Z</time>
            </trkpt>
            <trkpt lon="99.216884" lat="13.605138">
                <ele>277.477661</ele>
                <time>2009-04-26T03:51:41Z</time>
            </trkpt>
            <trkpt lon="99.216903" lat="13.605307">
                <ele>281.322998</ele>
                <time>2009-04-26T03:52:02Z</time>
            </trkpt>
            <trkpt lon="99.216894" lat="13.605351">
                <ele>281.803589</ele>
                <time>2009-04-26T03:52:07Z</time>
            </trkpt>
            <trkpt lon="99.216881" lat="13.605447">
                <ele>283.245606</ele>
                <time>2009-04-26T03:52:25Z</time>
            </trkpt>
            <trkpt lon="99.216925" lat="13.605665">
                <ele>281.322998</ele>
                <time>2009-04-26T03:52:38Z</time>
            </trkpt>
            <trkpt lon="99.216919" lat="13.605856">
                <ele>279.880859</ele>
                <time>2009-04-26T03:52:51Z</time>
            </trkpt>
            <trkpt lon="99.216894" lat="13.605985">
                <ele>277.477661</ele>
                <time>2009-04-26T03:53:04Z</time>
            </trkpt>
            <trkpt lon="99.216889" lat="13.606127">
                <ele>273.151856</ele>
                <time>2009-04-26T03:53:14Z</time>
            </trkpt>
            <trkpt lon="99.216925" lat="13.606143">
                <ele>271.709717</ele>
                <time>2009-04-26T03:53:18Z</time>
            </trkpt>
            <trkpt lon="99.216976" lat="13.606129">
                <ele>271.229126</ele>
                <time>2009-04-26T03:53:24Z</time>
            </trkpt>
            <trkpt lon="99.217277" lat="13.606296">
                <ele>268.825806</ele>
                <time>2009-04-26T03:53:40Z</time>
            </trkpt>
            <trkpt lon="99.217246" lat="13.606578">
                <ele>270.267700</ele>
                <time>2009-04-26T03:53:55Z</time>
            </trkpt>
            <trkpt lon="99.217298" lat="13.606896">
                <ele>267.864502</ele>
                <time>2009-04-26T03:54:07Z</time>
            </trkpt>
            <trkpt lon="99.217428" lat="13.607141">
                <ele>266.903198</ele>
                <time>2009-04-26T03:54:16Z</time>
            </trkpt>
            <trkpt lon="99.217464" lat="13.607251">
                <ele>268.825806</ele>
                <time>2009-04-26T03:54:30Z</time>
            </trkpt>
            <trkpt lon="99.217543" lat="13.607336">
                <ele>268.345093</ele>
                <time>2009-04-26T03:54:59Z</time>
            </trkpt>
            <trkpt lon="99.217944" lat="13.607586">
                <ele>263.538574</ele>
                <time>2009-04-26T03:55:13Z</time>
            </trkpt>
            <trkpt lon="99.218094" lat="13.607673">
                <ele>262.577148</ele>
                <time>2009-04-26T03:55:19Z</time>
            </trkpt>
            <trkpt lon="99.218451" lat="13.607806">
                <ele>259.212647</ele>
                <time>2009-04-26T03:55:30Z</time>
            </trkpt>
            <trkpt lon="99.218476" lat="13.607879">
                <ele>259.212647</ele>
                <time>2009-04-26T03:55:34Z</time>
            </trkpt>
            <trkpt lon="99.218334" lat="13.608124">
                <ele>260.654541</ele>
                <time>2009-04-26T03:55:48Z</time>
            </trkpt>
            <trkpt lon="99.218023" lat="13.608399">
                <ele>263.057861</ele>
                <time>2009-04-26T03:56:05Z</time>
            </trkpt>
            <trkpt lon="99.217758" lat="13.608556">
                <ele>265.941894</ele>
                <time>2009-04-26T03:56:21Z</time>
            </trkpt>
            <trkpt lon="99.217440" lat="13.608724">
                <ele>267.864502</ele>
                <time>2009-04-26T03:56:38Z</time>
            </trkpt>
            <trkpt lon="99.217057" lat="13.608935">
                <ele>267.383911</ele>
                <time>2009-04-26T03:56:54Z</time>
            </trkpt>
            <trkpt lon="99.217013" lat="13.609000">
                <ele>266.903198</ele>
                <time>2009-04-26T03:56:57Z</time>
            </trkpt>
            <trkpt lon="99.217128" lat="13.609127">
                <ele>264.019287</ele>
                <time>2009-04-26T03:57:02Z</time>
            </trkpt>
            <trkpt lon="99.217553" lat="13.609338">
                <ele>258.731934</ele>
                <time>2009-04-26T03:57:16Z</time>
            </trkpt>
            <trkpt lon="99.217967" lat="13.609501">
                <ele>256.809326</ele>
                <time>2009-04-26T03:57:31Z</time>
            </trkpt>
            <trkpt lon="99.218316" lat="13.609491">
                <ele>253.925415</ele>
                <time>2009-04-26T03:57:44Z</time>
            </trkpt>
            <trkpt lon="99.218339" lat="13.609484">
                <ele>253.444702</ele>
                <time>2009-04-26T03:57:45Z</time>
            </trkpt>
            <trkpt lon="99.218784" lat="13.609462">
                <ele>251.522095</ele>
                <time>2009-04-26T03:57:57Z</time>
            </trkpt>
            <trkpt lon="99.219241" lat="13.609686">
                <ele>251.522095</ele>
                <time>2009-04-26T03:58:10Z</time>
            </trkpt>
            <trkpt lon="99.219390" lat="13.609854">
                <ele>253.444702</ele>
                <time>2009-04-26T03:58:25Z</time>
            </trkpt>
            <trkpt lon="99.219666" lat="13.609883">
                <ele>252.963989</ele>
                <time>2009-04-26T03:58:35Z</time>
            </trkpt>
            <trkpt lon="99.220223" lat="13.609937">
                <ele>246.715454</ele>
                <time>2009-04-26T03:58:50Z</time>
            </trkpt>
            <trkpt lon="99.220827" lat="13.609935">
                <ele>243.831543</ele>
                <time>2009-04-26T03:59:04Z</time>
            </trkpt>
            <trkpt lon="99.220905" lat="13.610096">
                <ele>242.389648</ele>
                <time>2009-04-26T03:59:10Z</time>
            </trkpt>
            <trkpt lon="99.220928" lat="13.610365">
                <ele>244.312256</ele>
                <time>2009-04-26T03:59:23Z</time>
            </trkpt>
            <trkpt lon="99.220873" lat="13.610639">
                <ele>244.312256</ele>
                <time>2009-04-26T03:59:36Z</time>
            </trkpt>
            <trkpt lon="99.220963" lat="13.610910">
                <ele>245.754150</ele>
                <time>2009-04-26T03:59:53Z</time>
            </trkpt>
            <trkpt lon="99.221023" lat="13.611427">
                <ele>246.715454</ele>
                <time>2009-04-26T04:00:12Z</time>
            </trkpt>
            <trkpt lon="99.220968" lat="13.611945">
                <ele>244.312256</ele>
                <time>2009-04-26T04:00:26Z</time>
            </trkpt>
            <trkpt lon="99.220948" lat="13.612007">
                <ele>244.792847</ele>
                <time>2009-04-26T04:00:29Z</time>
            </trkpt>
            <trkpt lon="99.221126" lat="13.611984">
                <ele>243.831543</ele>
                <time>2009-04-26T04:00:38Z</time>
            </trkpt>
            <trkpt lon="99.221529" lat="13.611945">
                <ele>243.831543</ele>
                <time>2009-04-26T04:00:52Z</time>
            </trkpt>
            <trkpt lon="99.221969" lat="13.611859">
                <ele>244.792847</ele>
                <time>2009-04-26T04:01:06Z</time>
            </trkpt>
            <trkpt lon="99.222107" lat="13.611793">
                <ele>244.792847</ele>
                <time>2009-04-26T04:01:18Z</time>
            </trkpt>
            <trkpt lon="99.222436" lat="13.611595">
                <ele>244.792847</ele>
                <time>2009-04-26T04:01:29Z</time>
            </trkpt>
            <trkpt lon="99.222870" lat="13.611609">
                <ele>242.870239</ele>
                <time>2009-04-26T04:01:41Z</time>
            </trkpt>
            <trkpt lon="99.223173" lat="13.611707">
                <ele>242.389648</ele>
                <time>2009-04-26T04:01:52Z</time>
            </trkpt>
            <trkpt lon="99.223597" lat="13.611792">
                <ele>241.908936</ele>
                <time>2009-04-26T04:02:06Z</time>
            </trkpt>
            <trkpt lon="99.223963" lat="13.611669">
                <ele>241.428223</ele>
                <time>2009-04-26T04:02:20Z</time>
            </trkpt>
            <trkpt lon="99.224255" lat="13.611631">
                <ele>241.428223</ele>
                <time>2009-04-26T04:02:31Z</time>
            </trkpt>
            <trkpt lon="99.224511" lat="13.611539">
                <ele>242.389648</ele>
                <time>2009-04-26T04:02:43Z</time>
            </trkpt>
            <trkpt lon="99.224759" lat="13.611611">
                <ele>242.389648</ele>
                <time>2009-04-26T04:02:55Z</time>
            </trkpt>
            <trkpt lon="99.225166" lat="13.611560">
                <ele>239.024902</ele>
                <time>2009-04-26T04:03:09Z</time>
            </trkpt>
            <trkpt lon="99.225143" lat="13.611540">
                <ele>239.986206</ele>
                <time>2009-04-26T04:03:21Z</time>
            </trkpt>
            <trkpt lon="99.225143" lat="13.611540">
                <ele>239.986206</ele>
                <time>2009-04-26T04:03:21Z</time>
            </trkpt>
            <trkpt lon="99.225055" lat="13.611321">
                <ele>241.428223</ele>
                <time>2009-04-26T04:03:36Z</time>
            </trkpt>
            <trkpt lon="99.225028" lat="13.611254">
                <ele>241.428223</ele>
                <time>2009-04-26T04:03:50Z</time>
            </trkpt>
            <trkpt lon="99.225008" lat="13.611205">
                <ele>241.428223</ele>
                <time>2009-04-26T04:03:56Z</time>
            </trkpt>
            <trkpt lon="99.225031" lat="13.611143">
                <ele>241.428223</ele>
                <time>2009-04-26T04:04:03Z</time>
            </trkpt>
            <trkpt lon="99.225062" lat="13.611058">
                <ele>240.467041</ele>
                <time>2009-04-26T04:04:08Z</time>
            </trkpt>
            <trkpt lon="99.225079" lat="13.611019">
                <ele>240.467041</ele>
                <time>2009-04-26T04:04:10Z</time>
            </trkpt>
            <trkpt lon="99.225049" lat="13.610803">
                <ele>239.505493</ele>
                <time>2009-04-26T04:04:22Z</time>
            </trkpt>
            <trkpt lon="99.224996" lat="13.610575">
                <ele>238.544311</ele>
                <time>2009-04-26T04:04:36Z</time>
            </trkpt>
            <trkpt lon="99.224983" lat="13.610399">
                <ele>234.699097</ele>
                <time>2009-04-26T04:04:50Z</time>
            </trkpt>
            <trkpt lon="99.225007" lat="13.610289">
                <ele>233.737671</ele>
                <time>2009-04-26T04:05:02Z</time>
            </trkpt>
            <trkpt lon="99.225062" lat="13.610157">
                <ele>232.776489</ele>
                <time>2009-04-26T04:05:14Z</time>
            </trkpt>
            <trkpt lon="99.225229" lat="13.609869">
                <ele>232.295776</ele>
                <time>2009-04-26T04:05:27Z</time>
            </trkpt>
            <trkpt lon="99.225376" lat="13.609598">
                <ele>231.334351</ele>
                <time>2009-04-26T04:05:39Z</time>
            </trkpt>
            <trkpt lon="99.225374" lat="13.609245">
                <ele>230.853760</ele>
                <time>2009-04-26T04:05:52Z</time>
            </trkpt>
            <trkpt lon="99.225354" lat="13.608848">
                <ele>230.373047</ele>
                <time>2009-04-26T04:06:07Z</time>
            </trkpt>
            <trkpt lon="99.225354" lat="13.608811">
                <ele>229.892334</ele>
                <time>2009-04-26T04:06:09Z</time>
            </trkpt>
            <trkpt lon="99.225309" lat="13.608591">
                <ele>230.373047</ele>
                <time>2009-04-26T04:06:24Z</time>
            </trkpt>
            <trkpt lon="99.225293" lat="13.608501">
                <ele>231.334351</ele>
                <time>2009-04-26T04:06:41Z</time>
            </trkpt>
            <trkpt lon="99.225283" lat="13.608444">
                <ele>230.373047</ele>
                <time>2009-04-26T04:07:00Z</time>
            </trkpt>
            <trkpt lon="99.225287" lat="13.608400">
                <ele>230.853760</ele>
                <time>2009-04-26T04:07:13Z</time>
            </trkpt>
            <trkpt lon="99.225322" lat="13.608341">
                <ele>230.373047</ele>
                <time>2009-04-26T04:07:23Z</time>
            </trkpt>
            <trkpt lon="99.225330" lat="13.608306">
                <ele>230.373047</ele>
                <time>2009-04-26T04:07:27Z</time>
            </trkpt>
            <trkpt lon="99.225312" lat="13.608256">
                <ele>230.373047</ele>
                <time>2009-04-26T04:07:43Z</time>
            </trkpt>
            <trkpt lon="99.225290" lat="13.608191">
                <ele>231.334351</ele>
                <time>2009-04-26T04:07:58Z</time>
            </trkpt>
            <trkpt lon="99.225283" lat="13.608078">
                <ele>231.814941</ele>
                <time>2009-04-26T04:08:09Z</time>
            </trkpt>
            <trkpt lon="99.225282" lat="13.607978">
                <ele>232.295776</ele>
                <time>2009-04-26T04:08:23Z</time>
            </trkpt>
            <trkpt lon="99.225286" lat="13.607788">
                <ele>232.295776</ele>
                <time>2009-04-26T04:08:40Z</time>
            </trkpt>
            <trkpt lon="99.225291" lat="13.607554">
                <ele>232.776489</ele>
                <time>2009-04-26T04:09:00Z</time>
            </trkpt>
            <trkpt lon="99.225308" lat="13.607351">
                <ele>231.814941</ele>
                <time>2009-04-26T04:09:18Z</time>
            </trkpt>
            <trkpt lon="99.225312" lat="13.607282">
                <ele>231.334351</ele>
                <time>2009-04-26T04:09:34Z</time>
            </trkpt>
            <trkpt lon="99.225329" lat="13.607196">
                <ele>229.892334</ele>
                <time>2009-04-26T04:09:49Z</time>
            </trkpt>
            <trkpt lon="99.225311" lat="13.607153">
                <ele>228.931152</ele>
                <time>2009-04-26T04:10:01Z</time>
            </trkpt>
            <trkpt lon="99.225362" lat="13.607139">
                <ele>228.931152</ele>
                <time>2009-04-26T04:10:15Z</time>
            </trkpt>
            <trkpt lon="99.225362" lat="13.607139">
                <ele>228.931152</ele>
                <time>2009-04-26T04:10:16Z</time>
            </trkpt>
            <trkpt lon="99.225394" lat="13.607127">
                <ele>228.450439</ele>
                <time>2009-04-26T04:10:35Z</time>
            </trkpt>
            <trkpt lon="99.225413" lat="13.607124">
                <ele>227.969727</ele>
                <time>2009-04-26T04:11:21Z</time>
            </trkpt>
            <trkpt lon="99.225431" lat="13.607121">
                <ele>227.489136</ele>
                <time>2009-04-26T04:11:42Z</time>
            </trkpt>
            <trkpt lon="99.225464" lat="13.607114">
                <ele>227.969727</ele>
                <time>2009-04-26T04:12:04Z</time>
            </trkpt>
            <trkpt lon="99.225559" lat="13.607090">
                <ele>228.931152</ele>
                <time>2009-04-26T04:12:18Z</time>
            </trkpt>
            <trkpt lon="99.225577" lat="13.607091">
                <ele>228.931152</ele>
                <time>2009-04-26T04:12:20Z</time>
            </trkpt>
            <trkpt lon="99.225638" lat="13.607111">
                <ele>228.931152</ele>
                <time>2009-04-26T04:12:34Z</time>
            </trkpt>
            <trkpt lon="99.225805" lat="13.607151">
                <ele>228.931152</ele>
                <time>2009-04-26T04:12:49Z</time>
            </trkpt>
            <trkpt lon="99.225820" lat="13.607152">
                <ele>228.931152</ele>
                <time>2009-04-26T04:12:50Z</time>
            </trkpt>
            <trkpt lon="99.225971" lat="13.607214">
                <ele>228.450439</ele>
                <time>2009-04-26T04:13:07Z</time>
            </trkpt>
            <trkpt lon="99.225999" lat="13.607221">
                <ele>228.450439</ele>
                <time>2009-04-26T04:13:11Z</time>
            </trkpt>
            <trkpt lon="99.226194" lat="13.607296">
                <ele>228.450439</ele>
                <time>2009-04-26T04:13:30Z</time>
            </trkpt>
            <trkpt lon="99.226215" lat="13.607294">
                <ele>228.931152</ele>
                <time>2009-04-26T04:13:32Z</time>
            </trkpt>
            <trkpt lon="99.226333" lat="13.607408">
                <ele>228.931152</ele>
                <time>2009-04-26T04:13:47Z</time>
            </trkpt>
            <trkpt lon="99.226368" lat="13.607497">
                <ele>228.450439</ele>
                <time>2009-04-26T04:14:03Z</time>
            </trkpt>
            <trkpt lon="99.226407" lat="13.607571">
                <ele>230.373047</ele>
                <time>2009-04-26T04:14:18Z</time>
            </trkpt>
            <trkpt lon="99.226432" lat="13.607609">
                <ele>229.892334</ele>
                <time>2009-04-26T04:14:32Z</time>
            </trkpt>
            <trkpt lon="99.226512" lat="13.607629">
                <ele>230.853760</ele>
                <time>2009-04-26T04:14:47Z</time>
            </trkpt>
            <trkpt lon="99.226547" lat="13.607610">
                <ele>232.776489</ele>
                <time>2009-04-26T04:15:01Z</time>
            </trkpt>
            <trkpt lon="99.226580" lat="13.607595">
                <ele>234.699097</ele>
                <time>2009-04-26T04:15:15Z</time>
            </trkpt>
            <trkpt lon="99.226610" lat="13.607605">
                <ele>229.411743</ele>
                <time>2009-04-26T04:15:30Z</time>
            </trkpt>
            <trkpt lon="99.226676" lat="13.607611">
                <ele>227.489136</ele>
                <time>2009-04-26T04:16:34Z</time>
            </trkpt>
            <trkpt lon="99.226704" lat="13.607609">
                <ele>230.373047</ele>
                <time>2009-04-26T04:16:42Z</time>
            </trkpt>
            <trkpt lon="99.226768" lat="13.607601">
                <ele>231.334351</ele>
                <time>2009-04-26T04:16:47Z</time>
            </trkpt>
            <trkpt lon="99.227170" lat="13.607567">
                <ele>236.140991</ele>
                <time>2009-04-26T04:17:07Z</time>
            </trkpt>
            <trkpt lon="99.227205" lat="13.607573">
                <ele>236.140991</ele>
                <time>2009-04-26T04:17:09Z</time>
            </trkpt>
            <trkpt lon="99.227276" lat="13.607498">
                <ele>236.621704</ele>
                <time>2009-04-26T04:17:14Z</time>
            </trkpt>
            <trkpt lon="99.227732" lat="13.607419">
                <ele>238.544311</ele>
                <time>2009-04-26T04:17:32Z</time>
            </trkpt>
            <trkpt lon="99.228292" lat="13.607356">
                <ele>240.947632</ele>
                <time>2009-04-26T04:17:52Z</time>
            </trkpt>
            <trkpt lon="99.228724" lat="13.607275">
                <ele>243.350830</ele>
                <time>2009-04-26T04:18:11Z</time>
            </trkpt>
            <trkpt lon="99.228843" lat="13.606932">
                <ele>241.428223</ele>
                <time>2009-04-26T04:18:23Z</time>
            </trkpt>
            <trkpt lon="99.229082" lat="13.606110">
                <ele>236.140991</ele>
                <time>2009-04-26T04:18:39Z</time>
            </trkpt>
            <trkpt lon="99.229118" lat="13.606051">
                <ele>235.660278</ele>
                <time>2009-04-26T04:18:40Z</time>
            </trkpt>
            <trkpt lon="99.229776" lat="13.605479">
                <ele>233.737671</ele>
                <time>2009-04-26T04:18:53Z</time>
            </trkpt>
            <trkpt lon="99.230711" lat="13.604781">
                <ele>234.218384</ele>
                <time>2009-04-26T04:19:14Z</time>
            </trkpt>
            <trkpt lon="99.231048" lat="13.604390">
                <ele>234.699097</ele>
                <time>2009-04-26T04:19:25Z</time>
            </trkpt>
            <trkpt lon="99.231229" lat="13.603712">
                <ele>236.140991</ele>
                <time>2009-04-26T04:19:43Z</time>
            </trkpt>
            <trkpt lon="99.231043" lat="13.603003">
                <ele>234.699097</ele>
                <time>2009-04-26T04:19:58Z</time>
            </trkpt>
            <trkpt lon="99.230899" lat="13.601902">
                <ele>229.892334</ele>
                <time>2009-04-26T04:20:15Z</time>
            </trkpt>
            <trkpt lon="99.231006" lat="13.600371">
                <ele>225.085938</ele>
                <time>2009-04-26T04:20:36Z</time>
            </trkpt>
            <trkpt lon="99.231545" lat="13.598977">
                <ele>219.798584</ele>
                <time>2009-04-26T04:20:54Z</time>
            </trkpt>
            <trkpt lon="99.232045" lat="13.597854">
                <ele>219.317993</ele>
                <time>2009-04-26T04:21:10Z</time>
            </trkpt>
            <trkpt lon="99.232526" lat="13.597388">
                <ele>221.721191</ele>
                <time>2009-04-26T04:21:23Z</time>
            </trkpt>
            <trkpt lon="99.232848" lat="13.597214">
                <ele>224.124512</ele>
                <time>2009-04-26T04:21:36Z</time>
            </trkpt>
            <trkpt lon="99.233270" lat="13.597050">
                <ele>227.008545</ele>
                <time>2009-04-26T04:21:53Z</time>
            </trkpt>
            <trkpt lon="99.233751" lat="13.596864">
                <ele>230.373047</ele>
                <time>2009-04-26T04:22:13Z</time>
            </trkpt>
            <trkpt lon="99.234193" lat="13.596698">
                <ele>233.257080</ele>
                <time>2009-04-26T04:22:31Z</time>
            </trkpt>
            <trkpt lon="99.234869" lat="13.596434">
                <ele>233.257080</ele>
                <time>2009-04-26T04:22:52Z</time>
            </trkpt>
            <trkpt lon="99.235657" lat="13.596132">
                <ele>229.411743</ele>
                <time>2009-04-26T04:23:06Z</time>
            </trkpt>
            <trkpt lon="99.237081" lat="13.595584">
                <ele>225.085938</ele>
                <time>2009-04-26T04:23:25Z</time>
            </trkpt>
            <trkpt lon="99.238367" lat="13.595090">
                <ele>221.721191</ele>
                <time>2009-04-26T04:23:43Z</time>
            </trkpt>
            <trkpt lon="99.239915" lat="13.594498">
                <ele>221.721191</ele>
                <time>2009-04-26T04:24:05Z</time>
            </trkpt>
            <trkpt lon="99.240591" lat="13.594219">
                <ele>222.682495</ele>
                <time>2009-04-26T04:24:21Z</time>
            </trkpt>
            <trkpt lon="99.241348" lat="13.593843">
                <ele>222.201782</ele>
                <time>2009-04-26T04:24:38Z</time>
            </trkpt>
            <trkpt lon="99.242581" lat="13.593155">
                <ele>221.240601</ele>
                <time>2009-04-26T04:25:02Z</time>
            </trkpt>
            <trkpt lon="99.243262" lat="13.592484">
                <ele>219.317993</ele>
                <time>2009-04-26T04:25:18Z</time>
            </trkpt>
            <trkpt lon="99.243927" lat="13.591061">
                <ele>214.030640</ele>
                <time>2009-04-26T04:25:38Z</time>
            </trkpt>
            <trkpt lon="99.244585" lat="13.589256">
                <ele>206.340088</ele>
                <time>2009-04-26T04:26:01Z</time>
            </trkpt>
            <trkpt lon="99.244949" lat="13.588232">
                <ele>205.378784</ele>
                <time>2009-04-26T04:26:17Z</time>
            </trkpt>
            <trkpt lon="99.245362" lat="13.587220">
                <ele>205.378784</ele>
                <time>2009-04-26T04:26:37Z</time>
            </trkpt>
            <trkpt lon="99.245582" lat="13.586886">
                <ele>205.859497</ele>
                <time>2009-04-26T04:26:51Z</time>
            </trkpt>
            <trkpt lon="99.245534" lat="13.586857">
                <ele>216.433960</ele>
                <time>2009-04-26T04:28:30Z</time>
            </trkpt>
            <trkpt lon="99.245638" lat="13.586855">
                <ele>214.991943</ele>
                <time>2009-04-26T04:29:02Z</time>
            </trkpt>
            <trkpt lon="99.245648" lat="13.586861">
                <ele>212.108032</ele>
                <time>2009-04-26T04:29:41Z</time>
            </trkpt>
            <trkpt lon="99.245660" lat="13.586848">
                <ele>212.108032</ele>
                <time>2009-04-26T04:29:47Z</time>
            </trkpt>
            <trkpt lon="99.245909" lat="13.586654">
                <ele>210.185425</ele>
                <time>2009-04-26T04:30:02Z</time>
            </trkpt>
            <trkpt lon="99.246371" lat="13.586684">
                <ele>208.262817</ele>
                <time>2009-04-26T04:30:14Z</time>
            </trkpt>
            <trkpt lon="99.247025" lat="13.586526">
                <ele>205.859497</ele>
                <time>2009-04-26T04:30:29Z</time>
            </trkpt>
            <trkpt lon="99.248034" lat="13.586022">
                <ele>204.417481</ele>
                <time>2009-04-26T04:30:49Z</time>
            </trkpt>
            <trkpt lon="99.249131" lat="13.585450">
                <ele>206.340088</ele>
                <time>2009-04-26T04:31:13Z</time>
            </trkpt>
            <trkpt lon="99.249766" lat="13.585112">
                <ele>208.262817</ele>
                <time>2009-04-26T04:31:32Z</time>
            </trkpt>
            <trkpt lon="99.250463" lat="13.584716">
                <ele>208.262817</ele>
                <time>2009-04-26T04:31:51Z</time>
            </trkpt>
            <trkpt lon="99.251140" lat="13.584040">
                <ele>206.340088</ele>
                <time>2009-04-26T04:32:08Z</time>
            </trkpt>
            <trkpt lon="99.251906" lat="13.582928">
                <ele>201.052856</ele>
                <time>2009-04-26T04:32:28Z</time>
            </trkpt>
            <trkpt lon="99.252115" lat="13.582094">
                <ele>196.246338</ele>
                <time>2009-04-26T04:32:39Z</time>
            </trkpt>
            <trkpt lon="99.252105" lat="13.582009">
                <ele>196.246338</ele>
                <time>2009-04-26T04:32:40Z</time>
            </trkpt>
            <trkpt lon="99.251755" lat="13.581054">
                <ele>196.726929</ele>
                <time>2009-04-26T04:32:53Z</time>
            </trkpt>
            <trkpt lon="99.251397" lat="13.580617">
                <ele>199.130127</ele>
                <time>2009-04-26T04:33:05Z</time>
            </trkpt>
            <trkpt lon="99.251107" lat="13.580138">
                <ele>200.572266</ele>
                <time>2009-04-26T04:33:23Z</time>
            </trkpt>
            <trkpt lon="99.251098" lat="13.579829">
                <ele>201.533569</ele>
                <time>2009-04-26T04:33:38Z</time>
            </trkpt>
            <trkpt lon="99.251193" lat="13.579229">
                <ele>202.494873</ele>
                <time>2009-04-26T04:33:58Z</time>
            </trkpt>
            <trkpt lon="99.251329" lat="13.578514">
                <ele>202.014282</ele>
                <time>2009-04-26T04:34:15Z</time>
            </trkpt>
            <trkpt lon="99.251535" lat="13.577495">
                <ele>198.649536</ele>
                <time>2009-04-26T04:34:34Z</time>
            </trkpt>
            <trkpt lon="99.251994" lat="13.576113">
                <ele>196.726929</ele>
                <time>2009-04-26T04:34:56Z</time>
            </trkpt>
            <trkpt lon="99.252537" lat="13.574769">
                <ele>193.843018</ele>
                <time>2009-04-26T04:35:19Z</time>
            </trkpt>
            <trkpt lon="99.252783" lat="13.573750">
                <ele>187.113769</ele>
                <time>2009-04-26T04:35:32Z</time>
            </trkpt>
            <trkpt lon="99.252841" lat="13.572455">
                <ele>186.152466</ele>
                <time>2009-04-26T04:35:49Z</time>
            </trkpt>
            <trkpt lon="99.252891" lat="13.571554">
                <ele>188.075073</ele>
                <time>2009-04-26T04:36:06Z</time>
            </trkpt>
            <trkpt lon="99.253038" lat="13.570680">
                <ele>188.075073</ele>
                <time>2009-04-26T04:36:24Z</time>
            </trkpt>
            <trkpt lon="99.253509" lat="13.570138">
                <ele>190.958984</ele>
                <time>2009-04-26T04:36:40Z</time>
            </trkpt>
            <trkpt lon="99.253542" lat="13.570122">
                <ele>190.958984</ele>
                <time>2009-04-26T04:36:44Z</time>
            </trkpt>
            <trkpt lon="99.253448" lat="13.570115">
                <ele>191.439575</ele>
                <time>2009-04-26T04:36:51Z</time>
            </trkpt>
            <trkpt lon="99.253382" lat="13.570132">
                <ele>191.920288</ele>
                <time>2009-04-26T04:36:54Z</time>
            </trkpt>
            <trkpt lon="99.252887" lat="13.569999">
                <ele>190.958984</ele>
                <time>2009-04-26T04:37:07Z</time>
            </trkpt>
            <trkpt lon="99.252671" lat="13.570009">
                <ele>189.997681</ele>
                <time>2009-04-26T04:37:14Z</time>
            </trkpt>
            <trkpt lon="99.252637" lat="13.569856">
                <ele>188.555786</ele>
                <time>2009-04-26T04:37:19Z</time>
            </trkpt>
            <trkpt lon="99.252650" lat="13.569693">
                <ele>185.671753</ele>
                <time>2009-04-26T04:37:26Z</time>
            </trkpt>
            <trkpt lon="99.252506" lat="13.569734">
                <ele>184.229858</ele>
                <time>2009-04-26T04:37:34Z</time>
            </trkpt>
            <trkpt lon="99.252432" lat="13.569819">
                <ele>185.671753</ele>
                <time>2009-04-26T04:37:46Z</time>
            </trkpt>
            <trkpt lon="99.252276" lat="13.569928">
                <ele>188.075073</ele>
                <time>2009-04-26T04:38:05Z</time>
            </trkpt>
            <trkpt lon="99.252080" lat="13.569948">
                <ele>186.633179</ele>
                <time>2009-04-26T04:38:17Z</time>
            </trkpt>
            <trkpt lon="99.251503" lat="13.569829">
                <ele>185.191162</ele>
                <time>2009-04-26T04:38:32Z</time>
            </trkpt>
            <trkpt lon="99.251046" lat="13.569747">
                <ele>185.671753</ele>
                <time>2009-04-26T04:38:46Z</time>
            </trkpt>
            <trkpt lon="99.250662" lat="13.569758">
                <ele>186.152466</ele>
                <time>2009-04-26T04:38:58Z</time>
            </trkpt>
            <trkpt lon="99.250521" lat="13.569785">
                <ele>186.633179</ele>
                <time>2009-04-26T04:39:11Z</time>
            </trkpt>
            <trkpt lon="99.250615" lat="13.569838">
                <ele>190.478394</ele>
                <time>2009-04-26T04:39:25Z</time>
            </trkpt>
            <trkpt lon="99.250637" lat="13.569875">
                <ele>190.958984</ele>
                <time>2009-04-26T04:39:29Z</time>
            </trkpt>
            <trkpt lon="99.250610" lat="13.569909">
                <ele>192.881714</ele>
                <time>2009-04-26T04:39:45Z</time>
            </trkpt>
            <trkpt lon="99.250606" lat="13.569918">
                <ele>193.843018</ele>
                <time>2009-04-26T04:40:09Z</time>
            </trkpt>
            <trkpt lon="99.250452" lat="13.569908">
                <ele>196.246338</ele>
                <time>2009-04-26T04:40:27Z</time>
            </trkpt>
            <trkpt lon="99.250455" lat="13.569909">
                <ele>196.726929</ele>
                <time>2009-04-26T04:40:50Z</time>
            </trkpt>
            <trkpt lon="99.250385" lat="13.569917">
                <ele>197.207519</ele>
                <time>2009-04-26T04:41:04Z</time>
            </trkpt>
            <trkpt lon="99.250195" lat="13.569892">
                <ele>199.130127</ele>
                <time>2009-04-26T04:41:21Z</time>
            </trkpt>
            <trkpt lon="99.249778" lat="13.569871">
                <ele>201.052856</ele>
                <time>2009-04-26T04:41:43Z</time>
            </trkpt>
            <trkpt lon="99.249375" lat="13.569790">
                <ele>194.323731</ele>
                <time>2009-04-26T04:42:00Z</time>
            </trkpt>
            <trkpt lon="99.249128" lat="13.569725">
                <ele>189.997681</ele>
                <time>2009-04-26T04:42:14Z</time>
            </trkpt>
            <trkpt lon="99.249110" lat="13.569736">
                <ele>188.555786</ele>
                <time>2009-04-26T04:42:40Z</time>
            </trkpt>
            <trkpt lon="99.249060" lat="13.569790">
                <ele>190.478394</ele>
                <time>2009-04-26T04:42:56Z</time>
            </trkpt>
            <trkpt lon="99.249042" lat="13.569831">
                <ele>189.516968</ele>
                <time>2009-04-26T04:43:03Z</time>
            </trkpt>
            <trkpt lon="99.249065" lat="13.569858">
                <ele>189.997681</ele>
                <time>2009-04-26T04:43:11Z</time>
            </trkpt>
            <trkpt lon="99.249180" lat="13.570096">
                <ele>188.075073</ele>
                <time>2009-04-26T04:43:30Z</time>
            </trkpt>
            <trkpt lon="99.249185" lat="13.570182">
                <ele>191.439575</ele>
                <time>2009-04-26T04:43:49Z</time>
            </trkpt>
            <trkpt lon="99.249148" lat="13.570254">
                <ele>191.439575</ele>
                <time>2009-04-26T04:44:03Z</time>
            </trkpt>
            <trkpt lon="99.249127" lat="13.570288">
                <ele>191.920288</ele>
                <time>2009-04-26T04:44:08Z</time>
            </trkpt>
            <trkpt lon="99.249001" lat="13.570372">
                <ele>197.688232</ele>
                <time>2009-04-26T04:44:23Z</time>
            </trkpt>
            <trkpt lon="99.248944" lat="13.570392">
                <ele>203.936890</ele>
                <time>2009-04-26T04:44:39Z</time>
            </trkpt>
            <trkpt lon="99.248807" lat="13.570433">
                <ele>205.378784</ele>
                <time>2009-04-26T04:44:57Z</time>
            </trkpt>
            <trkpt lon="99.248654" lat="13.570415">
                <ele>203.456177</ele>
                <time>2009-04-26T04:45:14Z</time>
            </trkpt>
            <trkpt lon="99.248644" lat="13.570421">
                <ele>202.975464</ele>
                <time>2009-04-26T04:45:15Z</time>
            </trkpt>
            <trkpt lon="99.248462" lat="13.570523">
                <ele>204.417481</ele>
                <time>2009-04-26T04:45:34Z</time>
            </trkpt>
            <trkpt lon="99.248390" lat="13.570538">
                <ele>201.052856</ele>
                <time>2009-04-26T04:45:53Z</time>
            </trkpt>
            <trkpt lon="99.248328" lat="13.570573">
                <ele>200.091675</ele>
                <time>2009-04-26T04:46:21Z</time>
            </trkpt>
            <trkpt lon="99.248222" lat="13.570610">
                <ele>198.649536</ele>
                <time>2009-04-26T04:46:37Z</time>
            </trkpt>
            <trkpt lon="99.248109" lat="13.570671">
                <ele>198.649536</ele>
                <time>2009-04-26T04:46:54Z</time>
            </trkpt>
            <trkpt lon="99.248047" lat="13.570692">
                <ele>199.130127</ele>
                <time>2009-04-26T04:47:06Z</time>
            </trkpt>
            <trkpt lon="99.247882" lat="13.570727">
                <ele>197.207519</ele>
                <time>2009-04-26T04:47:24Z</time>
            </trkpt>
            <trkpt lon="99.247786" lat="13.570735">
                <ele>198.168945</ele>
                <time>2009-04-26T04:47:40Z</time>
            </trkpt>
            <trkpt lon="99.247732" lat="13.570746">
                <ele>198.168945</ele>
                <time>2009-04-26T04:47:55Z</time>
            </trkpt>
            <trkpt lon="99.247687" lat="13.570776">
                <ele>195.765625</ele>
                <time>2009-04-26T04:48:10Z</time>
            </trkpt>
            <trkpt lon="99.247671" lat="13.570801">
                <ele>198.168945</ele>
                <time>2009-04-26T04:48:25Z</time>
            </trkpt>
            <trkpt lon="99.247677" lat="13.570884">
                <ele>197.207519</ele>
                <time>2009-04-26T04:48:39Z</time>
            </trkpt>
            <trkpt lon="99.247708" lat="13.570924">
                <ele>196.726929</ele>
                <time>2009-04-26T04:48:54Z</time>
            </trkpt>
            <trkpt lon="99.247680" lat="13.571000">
                <ele>196.726929</ele>
                <time>2009-04-26T04:49:04Z</time>
            </trkpt>
            <trkpt lon="99.247526" lat="13.571060">
                <ele>196.726929</ele>
                <time>2009-04-26T04:49:22Z</time>
            </trkpt>
            <trkpt lon="99.247419" lat="13.571059">
                <ele>197.207519</ele>
                <time>2009-04-26T04:49:40Z</time>
            </trkpt>
            <trkpt lon="99.247396" lat="13.571052">
                <ele>197.207519</ele>
                <time>2009-04-26T04:49:47Z</time>
            </trkpt>
            <trkpt lon="99.247277" lat="13.571025">
                <ele>198.168945</ele>
                <time>2009-04-26T04:50:00Z</time>
            </trkpt>
            <trkpt lon="99.247278" lat="13.571019">
                <ele>197.207519</ele>
                <time>2009-04-26T04:50:25Z</time>
            </trkpt>
            <trkpt lon="99.247146" lat="13.571040">
                <ele>198.649536</ele>
                <time>2009-04-26T04:50:43Z</time>
            </trkpt>
            <trkpt lon="99.247123" lat="13.571053">
                <ele>198.168945</ele>
                <time>2009-04-26T04:50:46Z</time>
            </trkpt>
            <trkpt lon="99.247013" lat="13.571122">
                <ele>197.688232</ele>
                <time>2009-04-26T04:51:01Z</time>
            </trkpt>
            <trkpt lon="99.246832" lat="13.571252">
                <ele>197.688232</ele>
                <time>2009-04-26T04:51:11Z</time>
            </trkpt>
            <trkpt lon="99.246767" lat="13.571264">
                <ele>197.688232</ele>
                <time>2009-04-26T04:51:14Z</time>
            </trkpt>
            <trkpt lon="99.246559" lat="13.571454">
                <ele>198.168945</ele>
                <time>2009-04-26T04:51:30Z</time>
            </trkpt>
            <trkpt lon="99.246527" lat="13.571480">
                <ele>199.130127</ele>
                <time>2009-04-26T04:51:44Z</time>
            </trkpt>
            <trkpt lon="99.246390" lat="13.571581">
                <ele>200.091675</ele>
                <time>2009-04-26T04:52:01Z</time>
            </trkpt>
            <trkpt lon="99.246139" lat="13.571714">
                <ele>199.610840</ele>
                <time>2009-04-26T04:52:15Z</time>
            </trkpt>
            <trkpt lon="99.245861" lat="13.571881">
                <ele>201.052856</ele>
                <time>2009-04-26T04:52:31Z</time>
            </trkpt>
            <trkpt lon="99.245766" lat="13.571914">
                <ele>202.975464</ele>
                <time>2009-04-26T04:52:44Z</time>
            </trkpt>
            <trkpt lon="99.245561" lat="13.572017">
                <ele>206.340088</ele>
                <time>2009-04-26T04:53:06Z</time>
            </trkpt>
            <trkpt lon="99.245493" lat="13.572042">
                <ele>206.820679</ele>
                <time>2009-04-26T04:53:23Z</time>
            </trkpt>
            <trkpt lon="99.245406" lat="13.572072">
                <ele>207.782105</ele>
                <time>2009-04-26T04:53:36Z</time>
            </trkpt>
            <trkpt lon="99.245199" lat="13.572103">
                <ele>208.262817</ele>
                <time>2009-04-26T04:53:50Z</time>
            </trkpt>
            <trkpt lon="99.245009" lat="13.572246">
                <ele>209.224121</ele>
                <time>2009-04-26T04:54:04Z</time>
            </trkpt>
            <trkpt lon="99.244823" lat="13.572459">
                <ele>211.627441</ele>
                <time>2009-04-26T04:54:22Z</time>
            </trkpt>
            <trkpt lon="99.244652" lat="13.572812">
                <ele>211.627441</ele>
                <time>2009-04-26T04:54:42Z</time>
            </trkpt>
            <trkpt lon="99.244383" lat="13.573255">
                <ele>205.859497</ele>
                <time>2009-04-26T04:55:02Z</time>
            </trkpt>
            <trkpt lon="99.244255" lat="13.573501">
                <ele>205.859497</ele>
                <time>2009-04-26T04:55:15Z</time>
            </trkpt>
            <trkpt lon="99.244188" lat="13.573639">
                <ele>208.743408</ele>
                <time>2009-04-26T04:55:31Z</time>
            </trkpt>
            <trkpt lon="99.244136" lat="13.573730">
                <ele>209.224121</ele>
                <time>2009-04-26T04:55:49Z</time>
            </trkpt>
            <trkpt lon="99.244121" lat="13.573910">
                <ele>208.743408</ele>
                <time>2009-04-26T04:56:04Z</time>
            </trkpt>
            <trkpt lon="99.244167" lat="13.574001">
                <ele>208.743408</ele>
                <time>2009-04-26T04:56:15Z</time>
            </trkpt>
            <trkpt lon="99.244416" lat="13.574450">
                <ele>206.820679</ele>
                <time>2009-04-26T04:56:30Z</time>
            </trkpt>
            <trkpt lon="99.244434" lat="13.574491">
                <ele>206.820679</ele>
                <time>2009-04-26T04:56:31Z</time>
            </trkpt>
            <trkpt lon="99.244543" lat="13.574837">
                <ele>207.782105</ele>
                <time>2009-04-26T04:56:43Z</time>
            </trkpt>
            <trkpt lon="99.244581" lat="13.574871">
                <ele>207.782105</ele>
                <time>2009-04-26T04:56:45Z</time>
            </trkpt>
            <trkpt lon="99.244564" lat="13.575222">
                <ele>207.782105</ele>
                <time>2009-04-26T04:57:00Z</time>
            </trkpt>
            <trkpt lon="99.244558" lat="13.575265">
                <ele>207.782105</ele>
                <time>2009-04-26T04:57:02Z</time>
            </trkpt>
            <trkpt lon="99.244240" lat="13.575468">
                <ele>210.185425</ele>
                <time>2009-04-26T04:57:19Z</time>
            </trkpt>
            <trkpt lon="99.244010" lat="13.575537">
                <ele>210.666016</ele>
                <time>2009-04-26T04:57:33Z</time>
            </trkpt>
            <trkpt lon="99.243803" lat="13.575728">
                <ele>207.782105</ele>
                <time>2009-04-26T04:57:44Z</time>
            </trkpt>
            <trkpt lon="99.243826" lat="13.575956">
                <ele>208.262817</ele>
                <time>2009-04-26T04:57:56Z</time>
            </trkpt>
            <trkpt lon="99.243807" lat="13.576038">
                <ele>209.704834</ele>
                <time>2009-04-26T04:58:01Z</time>
            </trkpt>
            <trkpt lon="99.243695" lat="13.576040">
                <ele>209.704834</ele>
                <time>2009-04-26T04:58:08Z</time>
            </trkpt>
            <trkpt lon="99.243238" lat="13.576097">
                <ele>210.666016</ele>
                <time>2009-04-26T04:58:25Z</time>
            </trkpt>
            <trkpt lon="99.242811" lat="13.576292">
                <ele>211.146728</ele>
                <time>2009-04-26T04:58:41Z</time>
            </trkpt>
            <trkpt lon="99.242428" lat="13.576205">
                <ele>212.108032</ele>
                <time>2009-04-26T04:58:53Z</time>
            </trkpt>
            <trkpt lon="99.242015" lat="13.575910">
                <ele>212.588623</ele>
                <time>2009-04-26T04:59:07Z</time>
            </trkpt>
            <trkpt lon="99.241649" lat="13.575592">
                <ele>213.550049</ele>
                <time>2009-04-26T04:59:22Z</time>
            </trkpt>
            <trkpt lon="99.241260" lat="13.575489">
                <ele>214.511231</ele>
                <time>2009-04-26T04:59:37Z</time>
            </trkpt>
            <trkpt lon="99.240918" lat="13.575393">
                <ele>215.472656</ele>
                <time>2009-04-26T04:59:49Z</time>
            </trkpt>
            <trkpt lon="99.240416" lat="13.575256">
                <ele>216.433960</ele>
                <time>2009-04-26T05:00:03Z</time>
            </trkpt>
            <trkpt lon="99.239848" lat="13.575035">
                <ele>216.433960</ele>
                <time>2009-04-26T05:00:21Z</time>
            </trkpt>
            <trkpt lon="99.239664" lat="13.574965">
                <ele>215.472656</ele>
                <time>2009-04-26T05:00:25Z</time>
            </trkpt>
            <trkpt lon="99.239353" lat="13.574819">
                <ele>216.433960</ele>
                <time>2009-04-26T05:00:37Z</time>
            </trkpt>
            <trkpt lon="99.239091" lat="13.574828">
                <ele>217.875977</ele>
                <time>2009-04-26T05:00:50Z</time>
            </trkpt>
            <trkpt lon="99.238788" lat="13.574829">
                <ele>219.317993</ele>
                <time>2009-04-26T05:01:04Z</time>
            </trkpt>
            <trkpt lon="99.238389" lat="13.574722">
                <ele>220.759888</ele>
                <time>2009-04-26T05:01:20Z</time>
            </trkpt>
            <trkpt lon="99.237952" lat="13.574611">
                <ele>222.201782</ele>
                <time>2009-04-26T05:01:37Z</time>
            </trkpt>
            <trkpt lon="99.237680" lat="13.574511">
                <ele>223.163208</ele>
                <time>2009-04-26T05:01:52Z</time>
            </trkpt>
            <trkpt lon="99.237589" lat="13.574478">
                <ele>223.643799</ele>
                <time>2009-04-26T05:02:04Z</time>
            </trkpt>
            <trkpt lon="99.237338" lat="13.574402">
                <ele>224.605225</ele>
                <time>2009-04-26T05:02:17Z</time>
            </trkpt>
            <trkpt lon="99.236898" lat="13.574286">
                <ele>226.047119</ele>
                <time>2009-04-26T05:02:35Z</time>
            </trkpt>
            <trkpt lon="99.236377" lat="13.574148">
                <ele>227.008545</ele>
                <time>2009-04-26T05:02:53Z</time>
            </trkpt>
            <trkpt lon="99.235945" lat="13.574086">
                <ele>227.008545</ele>
                <time>2009-04-26T05:03:08Z</time>
            </trkpt>
            <trkpt lon="99.235596" lat="13.573924">
                <ele>228.450439</ele>
                <time>2009-04-26T05:03:25Z</time>
            </trkpt>
            <trkpt lon="99.235516" lat="13.573858">
                <ele>229.892334</ele>
                <time>2009-04-26T05:03:42Z</time>
            </trkpt>
            <trkpt lon="99.235362" lat="13.573760">
                <ele>230.853760</ele>
                <time>2009-04-26T05:04:00Z</time>
            </trkpt>
            <trkpt lon="99.235326" lat="13.573758">
                <ele>230.853760</ele>
                <time>2009-04-26T05:04:14Z</time>
            </trkpt>
            <trkpt lon="99.235317" lat="13.573752">
                <ele>230.373047</ele>
                <time>2009-04-26T05:04:33Z</time>
            </trkpt>
            <trkpt lon="99.235272" lat="13.573759">
                <ele>229.892334</ele>
                <time>2009-04-26T05:04:43Z</time>
            </trkpt>
            <trkpt lon="99.235228" lat="13.573759">
                <ele>230.373047</ele>
                <time>2009-04-26T05:04:52Z</time>
            </trkpt>
            <trkpt lon="99.235189" lat="13.573768">
                <ele>229.892334</ele>
                <time>2009-04-26T05:04:56Z</time>
            </trkpt>
            <trkpt lon="99.234879" lat="13.573722">
                <ele>230.853760</ele>
                <time>2009-04-26T05:05:13Z</time>
            </trkpt>
            <trkpt lon="99.234454" lat="13.573578">
                <ele>231.334351</ele>
                <time>2009-04-26T05:05:29Z</time>
            </trkpt>
            <trkpt lon="99.233879" lat="13.573436">
                <ele>231.814941</ele>
                <time>2009-04-26T05:05:49Z</time>
            </trkpt>
            <trkpt lon="99.233663" lat="13.573314">
                <ele>232.776489</ele>
                <time>2009-04-26T05:06:01Z</time>
            </trkpt>
            <trkpt lon="99.233309" lat="13.573029">
                <ele>232.776489</ele>
                <time>2009-04-26T05:06:17Z</time>
            </trkpt>
            <trkpt lon="99.233242" lat="13.572606">
                <ele>234.218384</ele>
                <time>2009-04-26T05:06:33Z</time>
            </trkpt>
            <trkpt lon="99.233095" lat="13.572129">
                <ele>235.660278</ele>
                <time>2009-04-26T05:06:50Z</time>
            </trkpt>
            <trkpt lon="99.232743" lat="13.571717">
                <ele>236.140991</ele>
                <time>2009-04-26T05:07:08Z</time>
            </trkpt>
            <trkpt lon="99.232206" lat="13.571327">
                <ele>236.140991</ele>
                <time>2009-04-26T05:07:27Z</time>
            </trkpt>
            <trkpt lon="99.231882" lat="13.571172">
                <ele>237.102295</ele>
                <time>2009-04-26T05:07:40Z</time>
            </trkpt>
            <trkpt lon="99.231331" lat="13.570898">
                <ele>239.505493</ele>
                <time>2009-04-26T05:08:03Z</time>
            </trkpt>
            <trkpt lon="99.231019" lat="13.570723">
                <ele>239.986206</ele>
                <time>2009-04-26T05:08:19Z</time>
            </trkpt>
            <trkpt lon="99.230579" lat="13.570410">
                <ele>240.947632</ele>
                <time>2009-04-26T05:08:38Z</time>
            </trkpt>
            <trkpt lon="99.230315" lat="13.570248">
                <ele>241.908936</ele>
                <time>2009-04-26T05:08:50Z</time>
            </trkpt>
            <trkpt lon="99.230092" lat="13.569967">
                <ele>243.831543</ele>
                <time>2009-04-26T05:09:04Z</time>
            </trkpt>
            <trkpt lon="99.229890" lat="13.569532">
                <ele>245.273438</ele>
                <time>2009-04-26T05:09:24Z</time>
            </trkpt>
            <trkpt lon="99.229602" lat="13.569119">
                <ele>246.715454</ele>
                <time>2009-04-26T05:09:43Z</time>
            </trkpt>
            <trkpt lon="99.228975" lat="13.568741">
                <ele>248.638184</ele>
                <time>2009-04-26T05:10:05Z</time>
            </trkpt>
            <trkpt lon="99.228919" lat="13.568577">
                <ele>250.080200</ele>
                <time>2009-04-26T05:10:16Z</time>
            </trkpt>
            <trkpt lon="99.228907" lat="13.568572">
                <ele>250.560791</ele>
                <time>2009-04-26T05:10:33Z</time>
            </trkpt>
            <trkpt lon="99.228881" lat="13.568564">
                <ele>251.041382</ele>
                <time>2009-04-26T05:11:05Z</time>
            </trkpt>
            <trkpt lon="99.228944" lat="13.568362">
                <ele>251.041382</ele>
                <time>2009-04-26T05:11:17Z</time>
            </trkpt>
            <trkpt lon="99.229086" lat="13.567846">
                <ele>252.483398</ele>
                <time>2009-04-26T05:11:36Z</time>
            </trkpt>
            <trkpt lon="99.228920" lat="13.567284">
                <ele>253.925415</ele>
                <time>2009-04-26T05:11:54Z</time>
            </trkpt>
            <trkpt lon="99.228575" lat="13.566742">
                <ele>256.328735</ele>
                <time>2009-04-26T05:12:14Z</time>
            </trkpt>
            <trkpt lon="99.228353" lat="13.566204">
                <ele>258.731934</ele>
                <time>2009-04-26T05:12:32Z</time>
            </trkpt>
            <trkpt lon="99.228348" lat="13.565599">
                <ele>259.212647</ele>
                <time>2009-04-26T05:12:53Z</time>
            </trkpt>
            <trkpt lon="99.228218" lat="13.565005">
                <ele>261.135254</ele>
                <time>2009-04-26T05:13:13Z</time>
            </trkpt>
            <trkpt lon="99.228030" lat="13.564450">
                <ele>264.980591</ele>
                <time>2009-04-26T05:13:34Z</time>
            </trkpt>
            <trkpt lon="99.227800" lat="13.563972">
                <ele>267.864502</ele>
                <time>2009-04-26T05:13:54Z</time>
            </trkpt>
            <trkpt lon="99.227533" lat="13.563486">
                <ele>270.748413</ele>
                <time>2009-04-26T05:14:15Z</time>
            </trkpt>
            <trkpt lon="99.227390" lat="13.563208">
                <ele>274.113037</ele>
                <time>2009-04-26T05:14:32Z</time>
            </trkpt>
            <trkpt lon="99.227332" lat="13.562993">
                <ele>276.516357</ele>
                <time>2009-04-26T05:14:47Z</time>
            </trkpt>
            <trkpt lon="99.227262" lat="13.562706">
                <ele>279.400269</ele>
                <time>2009-04-26T05:15:07Z</time>
            </trkpt>
            <trkpt lon="99.227207" lat="13.562444">
                <ele>282.765015</ele>
                <time>2009-04-26T05:15:25Z</time>
            </trkpt>
            <trkpt lon="99.227202" lat="13.562166">
                <ele>286.610230</ele>
                <time>2009-04-26T05:15:44Z</time>
            </trkpt>
            <trkpt lon="99.227196" lat="13.561891">
                <ele>289.494141</ele>
                <time>2009-04-26T05:16:03Z</time>
            </trkpt>
            <trkpt lon="99.227195" lat="13.561629">
                <ele>291.897461</ele>
                <time>2009-04-26T05:16:20Z</time>
            </trkpt>
            <trkpt lon="99.227252" lat="13.561330">
                <ele>294.300781</ele>
                <time>2009-04-26T05:16:37Z</time>
            </trkpt>
            <trkpt lon="99.227452" lat="13.560932">
                <ele>297.184692</ele>
                <time>2009-04-26T05:16:58Z</time>
            </trkpt>
            <trkpt lon="99.227788" lat="13.560510">
                <ele>299.588013</ele>
                <time>2009-04-26T05:17:19Z</time>
            </trkpt>
            <trkpt lon="99.228272" lat="13.560158">
                <ele>302.952515</ele>
                <time>2009-04-26T05:17:39Z</time>
            </trkpt>
            <trkpt lon="99.228664" lat="13.559783">
                <ele>303.433227</ele>
                <time>2009-04-26T05:17:58Z</time>
            </trkpt>
            <trkpt lon="99.228895" lat="13.559334">
                <ele>305.355957</ele>
                <time>2009-04-26T05:18:14Z</time>
            </trkpt>
            <trkpt lon="99.229023" lat="13.558660">
                <ele>307.278565</ele>
                <time>2009-04-26T05:18:36Z</time>
            </trkpt>
            <trkpt lon="99.229005" lat="13.558323">
                <ele>311.123779</ele>
                <time>2009-04-26T05:18:54Z</time>
            </trkpt>
            <trkpt lon="99.229005" lat="13.557994">
                <ele>314.488403</ele>
                <time>2009-04-26T05:19:13Z</time>
            </trkpt>
            <trkpt lon="99.228999" lat="13.557575">
                <ele>318.333618</ele>
                <time>2009-04-26T05:19:37Z</time>
            </trkpt>
            <trkpt lon="99.228992" lat="13.557295">
                <ele>322.178955</ele>
                <time>2009-04-26T05:19:53Z</time>
            </trkpt>
            <trkpt lon="99.229016" lat="13.556920">
                <ele>326.504883</ele>
                <time>2009-04-26T05:20:14Z</time>
            </trkpt>
            <trkpt lon="99.229009" lat="13.556566">
                <ele>328.908325</ele>
                <time>2009-04-26T05:20:33Z</time>
            </trkpt>
            <trkpt lon="99.228956" lat="13.556183">
                <ele>331.311523</ele>
                <time>2009-04-26T05:20:51Z</time>
            </trkpt>
            <trkpt lon="99.228883" lat="13.555759">
                <ele>331.792114</ele>
                <time>2009-04-26T05:21:07Z</time>
            </trkpt>
            <trkpt lon="99.229130" lat="13.555578">
                <ele>331.792114</ele>
                <time>2009-04-26T05:21:16Z</time>
            </trkpt>
            <trkpt lon="99.229446" lat="13.555431">
                <ele>334.676148</ele>
                <time>2009-04-26T05:21:30Z</time>
            </trkpt>
            <trkpt lon="99.229690" lat="13.555261">
                <ele>339.002075</ele>
                <time>2009-04-26T05:21:47Z</time>
            </trkpt>
            <trkpt lon="99.229899" lat="13.555384">
                <ele>339.963379</ele>
                <time>2009-04-26T05:22:03Z</time>
            </trkpt>
            <trkpt lon="99.229904" lat="13.555392">
                <ele>339.963379</ele>
                <time>2009-04-26T05:22:16Z</time>
            </trkpt>
        </trkseg>
    </trk>
</gpx>